createdAt,value
2019-02-19T00:00:41.893Z,18.87
2019-02-19T00:03:11.015Z,18.98
2019-02-19T00:05:40.159Z,15.35
2019-02-19T00:08:09.299Z,11.83
2019-02-19T00:10:38.437Z,16.73
2019-02-19T00:13:07.574Z,22.85
2019-02-19T00:15:36.718Z,20.70
2019-02-19T00:18:05.843Z,17.07
2019-02-19T00:20:34.970Z,20.02
2019-02-19T00:23:04.117Z,24.63
2019-02-19T00:25:33.234Z,17.35
2019-02-19T00:28:04.013Z,15.18
2019-02-19T00:30:33.132Z,12.68
2019-02-19T00:33:02.279Z,24.43
2019-02-19T00:35:34.111Z,17.27
2019-02-19T00:38:03.255Z,17.60
2019-02-19T00:40:32.395Z,13.30
2019-02-19T00:43:01.535Z,20.72
2019-02-19T00:45:30.657Z,21.27
2019-02-19T00:48:01.291Z,12.95
2019-02-19T00:50:30.439Z,19.90
2019-02-19T00:52:59.610Z,20.68
2019-02-19T00:55:28.743Z,17.67
2019-02-19T00:57:57.886Z,12.85
2019-02-19T01:00:27.019Z,15.40
2019-02-19T01:02:56.170Z,18.55
2019-02-19T01:05:25.375Z,15.43
2019-02-19T01:07:55.405Z,12.37
2019-02-19T01:10:24.531Z,14.98
2019-02-19T01:12:53.675Z,15.95
2019-02-19T01:15:25.509Z,16.73
2019-02-19T01:17:53.684Z,23.77
2019-02-19T01:20:23.354Z,13.43
2019-02-19T01:22:52.516Z,13.88
2019-02-19T01:25:21.653Z,11.38
2019-02-19T01:27:50.787Z,13.22
2019-02-19T01:30:20.006Z,10.40
2019-02-19T01:32:49.147Z,15.58
2019-02-19T01:35:18.479Z,15.28
2019-02-19T01:37:47.603Z,16.32
2019-02-19T01:40:16.757Z,11.85
2019-02-19T01:42:48.725Z,15.18
2019-02-19T01:45:19.525Z,17.20
2019-02-19T01:47:48.656Z,16.65
2019-02-19T01:50:17.813Z,17.25
2019-02-19T01:52:46.949Z,12.93
2019-02-19T01:55:16.105Z,14.28
2019-02-19T01:57:45.211Z,14.18
2019-02-19T02:00:14.901Z,19.50
2019-02-19T02:02:44.019Z,18.00
2019-02-19T02:05:13.167Z,13.08
2019-02-19T02:07:44.113Z,16.05
2019-02-19T02:10:13.228Z,19.87
2019-02-19T02:12:42.338Z,17.57
2019-02-19T02:15:11.489Z,18.60
2019-02-19T02:17:40.615Z,21.60
2019-02-19T02:20:09.843Z,19.90
2019-02-19T02:22:38.957Z,16.00
2019-02-19T02:25:08.105Z,15.18
2019-02-19T02:27:37.236Z,19.50
2019-02-19T02:30:08.681Z,14.68
2019-02-19T02:32:37.806Z,13.13
2019-02-19T02:35:06.965Z,15.68
2019-02-19T02:37:36.121Z,19.57
2019-02-19T02:40:07.701Z,15.25
2019-02-19T02:42:36.884Z,14.47
2019-02-19T02:45:06.002Z,16.23
2019-02-19T02:47:35.173Z,16.80
2019-02-19T02:50:04.638Z,13.95
2019-02-19T02:52:33.833Z,15.50
2019-02-19T02:55:02.910Z,16.52
2019-02-19T02:57:32.128Z,21.00
2019-02-19T03:00:01.265Z,13.38
2019-02-19T03:02:32.902Z,16.37
2019-02-19T03:05:02.045Z,12.93
2019-02-19T03:07:35.723Z,9.90
2019-02-19T03:10:05.970Z,13.50
2019-02-19T03:12:35.133Z,13.22
2019-02-19T03:15:06.070Z,16.10
2019-02-19T03:17:35.225Z,12.93
2019-02-19T03:20:06.269Z,17.23
2019-02-19T03:22:35.400Z,13.68
2019-02-19T03:25:05.236Z,12.50
2019-02-19T03:27:34.410Z,11.40
2019-02-19T03:30:04.178Z,12.00
2019-02-19T03:32:33.356Z,17.12
2019-02-19T03:35:02.469Z,12.68
2019-02-19T03:37:31.616Z,11.30
2019-02-19T03:40:00.737Z,14.45
2019-02-19T03:42:29.915Z,13.40
2019-02-19T03:44:59.106Z,18.98
2019-02-19T03:47:28.265Z,16.02
2019-02-19T03:49:57.421Z,19.87
2019-02-19T03:52:26.575Z,18.02
2019-02-19T03:54:55.709Z,15.18
2019-02-19T03:57:24.835Z,13.20
2019-02-19T03:59:54.002Z,19.25
2019-02-19T04:02:23.138Z,16.25
2019-02-19T04:04:52.305Z,11.95
2019-02-19T04:07:21.413Z,12.60
2019-02-19T04:09:50.560Z,13.62
2019-02-19T04:12:19.681Z,14.38
2019-02-19T04:14:48.831Z,19.98
2019-02-19T04:17:17.962Z,14.03
2019-02-19T04:19:47.102Z,15.72
2019-02-19T04:22:16.224Z,12.78
2019-02-19T04:24:45.366Z,15.25
2019-02-19T04:27:14.490Z,11.78
2019-02-19T04:29:43.635Z,18.82
2019-02-19T04:32:12.758Z,17.17
2019-02-19T04:34:41.898Z,10.75
2019-02-19T04:37:11.010Z,11.22
2019-02-19T04:39:40.226Z,13.70
2019-02-19T04:42:09.361Z,12.68
2019-02-19T04:44:40.833Z,8.28
2019-02-19T04:47:10.036Z,11.15
2019-02-19T04:49:39.182Z,12.20
2019-02-19T04:52:08.315Z,14.90
2019-02-19T04:54:37.450Z,14.63
2019-02-19T04:57:06.657Z,12.93
2019-02-19T04:59:35.798Z,13.98
2019-02-19T05:02:04.949Z,14.70
2019-02-19T05:04:34.087Z,15.10
2019-02-19T05:07:03.226Z,12.25
2019-02-19T05:09:32.350Z,18.62
2019-02-19T05:12:01.489Z,12.78
2019-02-19T05:14:30.627Z,13.68
2019-02-19T05:16:59.821Z,15.10
2019-02-19T05:19:28.936Z,13.38
2019-02-19T05:21:58.061Z,9.33
2019-02-19T05:24:27.220Z,12.68
2019-02-19T05:26:56.380Z,12.43
2019-02-19T05:29:25.486Z,8.95
2019-02-19T05:31:54.655Z,11.68
2019-02-19T05:34:23.796Z,12.82
2019-02-19T05:36:52.951Z,12.63
2019-02-19T05:39:22.160Z,15.32
2019-02-19T05:41:51.327Z,6.97
2019-02-19T05:44:20.470Z,19.32
2019-02-19T05:46:51.273Z,12.28
2019-02-19T05:49:20.402Z,12.68
2019-02-19T05:51:49.544Z,13.50
2019-02-19T05:54:18.664Z,9.45
2019-02-19T05:56:47.834Z,13.00
2019-02-19T05:59:16.956Z,12.03
2019-02-19T06:01:47.645Z,16.30
2019-02-19T06:04:16.793Z,16.12
2019-02-19T06:06:45.914Z,10.28
2019-02-19T06:09:15.035Z,12.50
2019-02-19T06:11:44.155Z,9.80
2019-02-19T06:14:13.322Z,15.10
2019-02-19T06:16:42.435Z,11.95
2019-02-19T06:19:11.593Z,15.45
2019-02-19T06:21:40.725Z,16.77
2019-02-19T06:24:09.869Z,12.60
2019-02-19T06:26:38.993Z,10.23
2019-02-19T06:29:09.782Z,9.60
2019-02-19T06:31:38.897Z,9.18
2019-02-19T06:34:08.074Z,13.48
2019-02-19T06:36:37.195Z,8.83
2019-02-19T06:39:06.504Z,8.38
2019-02-19T06:41:35.617Z,5.72
2019-02-19T06:44:04.757Z,4.87
2019-02-19T06:46:33.869Z,3.52
2019-02-19T06:49:04.637Z,5.08
2019-02-19T06:51:33.755Z,4.10
2019-02-19T06:54:02.894Z,7.33
2019-02-19T06:56:32.018Z,4.25
2019-02-19T06:59:02.232Z,4.75
2019-02-19T07:01:51.162Z,4.58
2019-02-19T07:04:21.954Z,5.72
2019-02-19T07:06:51.191Z,4.83
2019-02-19T07:09:21.975Z,3.90
2019-02-19T07:11:51.105Z,4.25
2019-02-19T07:14:20.266Z,4.00
2019-02-19T07:16:49.383Z,3.35
2019-02-19T07:19:18.513Z,3.20
2019-02-19T07:21:47.626Z,4.10
2019-02-19T07:24:16.798Z,4.40
2019-02-19T07:26:45.915Z,5.10
2019-02-19T07:29:24.194Z,3.50
2019-02-19T07:31:53.321Z,3.52
2019-02-19T07:34:22.492Z,3.62
2019-02-19T07:36:51.604Z,8.78
2019-02-19T07:39:20.737Z,8.45
2019-02-19T07:41:49.888Z,7.12
2019-02-19T07:44:20.597Z,4.00
2019-02-19T07:46:49.736Z,3.83
2019-02-19T07:49:20.137Z,3.50
2019-02-19T07:51:49.328Z,5.87
2019-02-19T07:54:18.451Z,3.40
2019-02-19T07:56:47.577Z,3.95
2019-02-19T07:59:19.691Z,3.30
2019-02-19T08:01:48.873Z,4.22
2019-02-19T08:04:17.949Z,2.92
2019-02-19T08:06:47.102Z,2.47
2019-02-19T08:09:16.325Z,5.08
2019-02-19T08:11:45.468Z,3.20
2019-02-19T08:14:14.608Z,2.87
2019-02-19T08:16:43.762Z,4.35
2019-02-19T08:19:12.885Z,5.45
2019-02-19T08:21:42.052Z,4.00
2019-02-19T08:24:11.204Z,2.85
2019-02-19T08:26:40.322Z,3.85
2019-02-19T08:29:13.879Z,4.53
2019-02-19T08:31:40.345Z,4.03
2019-02-19T08:34:09.472Z,2.60
2019-02-19T08:36:38.636Z,3.35
2019-02-19T08:39:07.925Z,3.95
2019-02-19T08:41:37.081Z,2.95
2019-02-19T08:44:06.186Z,2.77
2019-02-19T08:46:35.357Z,3.80
2019-02-19T08:49:04.466Z,3.22
2019-02-19T08:51:33.613Z,4.25
2019-02-19T08:54:04.372Z,2.47
2019-02-19T08:56:33.531Z,2.65
2019-02-19T08:59:02.687Z,3.42
2019-02-19T09:01:31.852Z,2.55
2019-02-19T09:04:00.996Z,3.00
2019-02-19T09:06:30.132Z,2.40
2019-02-19T09:08:59.284Z,4.37
2019-02-19T09:11:28.408Z,4.85
2019-02-19T09:13:57.574Z,3.17
2019-02-19T09:16:26.696Z,4.05
2019-02-19T09:18:55.843Z,3.52
2019-02-19T09:21:24.983Z,2.52
2019-02-19T09:23:54.264Z,3.00
2019-02-19T09:26:23.460Z,3.30
2019-02-19T09:28:52.596Z,4.70
2019-02-19T09:31:21.715Z,2.75
2019-02-19T09:33:50.852Z,3.17
2019-02-19T09:36:19.978Z,2.30
2019-02-19T09:38:49.129Z,3.35
2019-02-19T09:41:18.258Z,3.50
2019-02-19T09:43:47.402Z,3.47
2019-02-19T09:46:16.522Z,3.42
2019-02-19T09:48:45.666Z,3.37
2019-02-19T09:51:14.796Z,3.67
2019-02-19T09:53:43.966Z,6.22
2019-02-19T09:56:13.090Z,5.65
2019-02-19T09:58:42.329Z,4.67
2019-02-19T10:01:11.488Z,3.98
2019-02-19T10:03:40.619Z,3.42
2019-02-19T10:06:09.775Z,4.28
2019-02-19T10:08:38.905Z,3.60
2019-02-19T10:11:08.057Z,4.55
2019-02-19T10:13:37.203Z,7.12
2019-02-19T10:16:06.364Z,4.17
2019-02-19T10:18:35.488Z,4.62
2019-02-19T10:21:04.644Z,3.00
2019-02-19T10:23:33.765Z,3.40
2019-02-19T10:26:02.922Z,3.80
2019-02-19T10:28:32.053Z,4.00
2019-02-19T10:31:01.204Z,4.05
2019-02-19T10:33:30.324Z,4.35
2019-02-19T10:35:59.489Z,4.53
2019-02-19T10:38:28.620Z,3.90
2019-02-19T10:40:57.780Z,5.12
2019-02-19T10:43:26.900Z,4.83
2019-02-19T10:45:56.130Z,4.28
2019-02-19T10:48:25.254Z,4.42
2019-02-19T10:50:54.415Z,4.05
2019-02-19T10:53:23.535Z,3.85
2019-02-19T10:55:52.680Z,4.37
2019-02-19T10:58:23.192Z,4.42
2019-02-19T11:00:52.562Z,3.83
2019-02-19T11:03:21.707Z,3.67
2019-02-19T11:05:50.860Z,7.50
2019-02-19T11:08:19.990Z,5.53
2019-02-19T11:10:50.798Z,3.60
2019-02-19T11:13:20.091Z,4.62
2019-02-19T11:15:49.227Z,5.05
2019-02-19T11:18:18.389Z,6.62
2019-02-19T11:20:47.504Z,6.42
2019-02-19T11:23:16.650Z,6.87
2019-02-19T11:25:45.788Z,4.62
2019-02-19T11:28:14.953Z,4.03
2019-02-19T11:30:44.074Z,5.72
2019-02-19T11:33:13.238Z,4.70
2019-02-19T11:35:42.356Z,4.40
2019-02-19T11:38:11.491Z,4.65
2019-02-19T11:40:42.250Z,5.03
2019-02-19T11:43:11.433Z,4.45
2019-02-19T11:45:40.550Z,4.35
2019-02-19T11:48:09.699Z,5.22
2019-02-19T11:50:38.835Z,5.75
2019-02-19T11:53:07.968Z,4.97
2019-02-19T11:55:37.105Z,4.53
2019-02-19T11:58:06.253Z,5.53
2019-02-19T12:00:39.971Z,5.62
2019-02-19T12:03:09.121Z,5.45
2019-02-19T12:05:38.348Z,3.50
2019-02-19T12:08:07.485Z,3.77
2019-02-19T12:10:36.647Z,3.50
2019-02-19T12:13:05.808Z,5.40
2019-02-19T12:15:35.597Z,4.55
2019-02-19T12:18:04.934Z,4.40
2019-02-19T12:20:34.093Z,4.78
2019-02-19T12:23:03.258Z,3.83
2019-02-19T12:25:32.394Z,4.20
2019-02-19T12:28:01.597Z,3.72
2019-02-19T12:30:30.745Z,4.00
2019-02-19T12:32:59.920Z,4.55
2019-02-19T12:35:29.112Z,3.80
2019-02-19T12:37:58.268Z,6.40
2019-02-19T12:40:27.393Z,7.40
2019-02-19T12:42:56.532Z,5.37
2019-02-19T12:45:25.687Z,6.15
2019-02-19T12:47:54.807Z,6.03
2019-02-19T12:50:25.579Z,4.10
2019-02-19T12:52:54.711Z,3.67
2019-02-19T12:55:23.874Z,3.75
2019-02-19T12:57:53.027Z,3.80
2019-02-19T13:00:22.167Z,3.12
2019-02-19T13:02:51.307Z,4.80
2019-02-19T13:05:20.466Z,3.98
2019-02-19T13:07:49.572Z,5.87
2019-02-19T13:10:18.714Z,3.95
2019-02-19T13:12:49.107Z,3.72
2019-02-19T13:15:22.637Z,5.50
2019-02-19T13:17:51.795Z,3.95
2019-02-19T13:20:20.929Z,3.77
2019-02-19T13:22:50.075Z,6.28
2019-02-19T13:25:19.224Z,5.80
2019-02-19T13:27:48.359Z,3.98
2019-02-19T13:30:22.026Z,4.60
2019-02-19T13:32:51.196Z,4.47
2019-02-19T13:35:20.314Z,5.42
2019-02-19T13:37:49.467Z,4.05
2019-02-19T13:40:19.910Z,4.53
2019-02-19T13:42:49.051Z,3.22
2019-02-19T13:45:18.343Z,3.98
2019-02-19T13:47:47.495Z,3.50
2019-02-19T13:50:24.132Z,3.70
2019-02-19T13:53:07.086Z,4.20
2019-02-19T13:55:37.874Z,6.42
2019-02-19T13:58:07.014Z,3.72
2019-02-19T14:00:37.913Z,2.87
2019-02-19T14:03:07.076Z,3.85
2019-02-19T14:05:36.222Z,4.12
2019-02-19T14:08:13.971Z,3.20
2019-02-19T14:10:36.415Z,3.25
2019-02-19T14:13:05.518Z,3.98
2019-02-19T14:15:52.793Z,5.00
2019-02-19T14:18:23.611Z,4.08
2019-02-19T14:21:12.101Z,3.60
2019-02-19T14:23:45.536Z,3.30
2019-02-19T14:26:25.527Z,3.55
2019-02-19T14:29:08.115Z,3.60
2019-02-19T14:31:38.888Z,3.33
2019-02-19T14:34:09.688Z,2.87
2019-02-19T14:36:43.463Z,3.37
2019-02-19T14:39:30.569Z,2.60
2019-02-19T14:42:17.560Z,3.00
2019-02-19T14:44:48.357Z,5.70
2019-02-19T14:47:37.563Z,2.35
2019-02-19T14:50:14.102Z,5.17
2019-02-19T14:53:01.050Z,4.90
2019-02-19T14:55:43.611Z,2.40
2019-02-19T14:58:20.606Z,2.80
2019-02-19T15:00:51.433Z,2.45
2019-02-19T15:03:22.218Z,1.98
2019-02-19T15:05:55.739Z,2.47
2019-02-19T15:08:26.534Z,3.72
2019-02-19T15:11:03.021Z,2.52
2019-02-19T15:13:52.840Z,4.03
2019-02-19T15:16:39.727Z,2.12
2019-02-19T15:19:26.737Z,2.70
2019-02-19T15:22:06.565Z,2.60
2019-02-19T15:24:42.905Z,4.25
2019-02-19T15:27:16.479Z,2.45
2019-02-19T15:30:03.738Z,1.98
2019-02-19T15:32:50.709Z,2.70
2019-02-19T15:35:24.223Z,2.58
2019-02-19T15:38:09.820Z,2.30
2019-02-19T15:40:40.613Z,2.90
2019-02-19T15:43:27.480Z,2.45
2019-02-19T15:46:09.940Z,2.45
2019-02-19T15:48:58.312Z,2.77
2019-02-19T15:51:29.121Z,2.52
2019-02-19T15:54:00.021Z,2.50
2019-02-19T15:56:33.584Z,3.22
2019-02-19T15:59:04.373Z,3.37
2019-02-19T16:01:41.377Z,3.10
2019-02-19T16:04:24.059Z,3.83
2019-02-19T16:06:54.823Z,3.70
2019-02-19T16:09:25.646Z,2.85
2019-02-19T16:11:59.392Z,3.30
2019-02-19T16:14:35.939Z,3.25
2019-02-19T16:17:09.180Z,3.40
2019-02-19T16:19:39.958Z,2.80
2019-02-19T16:22:16.829Z,2.80
2019-02-19T16:24:53.595Z,3.70
2019-02-19T16:27:29.911Z,2.95
2019-02-19T16:30:06.566Z,2.70
2019-02-19T16:32:55.417Z,2.60
2019-02-19T16:35:26.201Z,3.45
2019-02-19T16:37:59.993Z,3.87
2019-02-19T16:40:46.932Z,3.15
2019-02-19T16:43:23.657Z,2.75
2019-02-19T16:45:54.467Z,2.95
2019-02-19T16:48:28.337Z,3.55
2019-02-19T16:51:13.932Z,3.15
2019-02-19T16:53:44.731Z,2.70
2019-02-19T16:56:15.525Z,2.67
2019-02-19T16:59:07.422Z,3.27
2019-02-19T17:01:51.034Z,3.72
2019-02-19T17:04:30.432Z,2.75
2019-02-19T17:07:17.357Z,3.65
2019-02-19T17:10:06.414Z,3.22
2019-02-19T17:12:55.133Z,3.70
2019-02-19T17:15:37.926Z,2.90
2019-02-19T17:18:20.387Z,3.40
2019-02-19T17:20:56.924Z,3.08
2019-02-19T17:23:27.696Z,4.10
2019-02-19T17:26:01.231Z,4.58
2019-02-19T17:28:32.014Z,3.67
2019-02-19T17:31:02.817Z,3.20
2019-02-19T17:33:36.270Z,2.62
2019-02-19T17:36:25.237Z,3.87
2019-02-19T17:38:56.025Z,4.12
2019-02-19T17:41:29.354Z,3.87
2019-02-19T17:44:00.206Z,3.17
2019-02-19T17:46:37.290Z,3.35
2019-02-19T17:49:14.107Z,4.03
2019-02-19T17:51:44.908Z,3.70
2019-02-19T17:54:21.230Z,3.65
2019-02-19T17:57:01.062Z,6.00
2019-02-19T17:59:35.059Z,3.77
2019-02-19T18:02:05.869Z,3.02
2019-02-19T18:04:52.710Z,4.83
2019-02-19T18:07:23.507Z,3.98
2019-02-19T18:10:09.390Z,10.85
2019-02-19T18:12:40.206Z,5.47
2019-02-19T18:15:27.417Z,4.50
2019-02-19T18:17:58.243Z,5.42
2019-02-19T18:20:27.373Z,5.85
2019-02-19T18:22:57.386Z,5.15
2019-02-19T18:25:26.503Z,3.80
2019-02-19T18:27:55.659Z,9.78
2019-02-19T18:30:24.816Z,7.25
2019-02-19T18:32:53.987Z,13.13
2019-02-19T18:35:23.113Z,9.73
2019-02-19T18:37:52.274Z,8.08
2019-02-19T18:40:21.414Z,6.42
2019-02-19T18:42:50.570Z,10.23
2019-02-19T18:45:19.722Z,14.05
2019-02-19T18:47:48.885Z,14.07
2019-02-19T18:50:18.109Z,21.15
2019-02-19T18:52:48.973Z,17.30
2019-02-19T18:55:18.241Z,17.75
2019-02-19T18:57:47.373Z,19.15
2019-02-19T19:00:18.436Z,18.75
2019-02-19T19:02:47.562Z,14.93
2019-02-19T19:05:16.705Z,10.45
2019-02-19T19:07:45.864Z,15.93
2019-02-19T19:10:15.056Z,10.45
2019-02-19T19:12:44.256Z,14.85
2019-02-19T19:15:13.504Z,11.25
2019-02-19T19:17:42.635Z,10.30
2019-02-19T19:20:12.636Z,9.95
2019-02-19T19:22:41.808Z,15.68
2019-02-19T19:25:11.001Z,17.45
2019-02-19T19:27:40.147Z,16.55
2019-02-19T19:30:15.371Z,14.80
2019-02-19T19:32:44.497Z,15.00
2019-02-19T19:35:13.654Z,13.45
2019-02-19T19:37:42.940Z,16.40
2019-02-19T19:40:13.022Z,18.95
2019-02-19T19:42:42.197Z,23.80
2019-02-19T19:45:12.792Z,24.80
2019-02-19T19:47:41.966Z,19.90
2019-02-19T19:50:12.266Z,15.85
2019-02-19T19:52:41.429Z,15.58
2019-02-19T19:55:11.552Z,13.32
2019-02-19T19:57:40.776Z,12.28
2019-02-19T20:00:12.742Z,23.12
2019-02-19T20:02:42.042Z,17.02
2019-02-19T20:05:11.437Z,15.55
2019-02-19T20:07:40.626Z,15.98
2019-02-19T20:10:15.281Z,17.40
2019-02-19T20:12:45.416Z,12.65
2019-02-19T20:15:14.555Z,21.57
2019-02-19T20:17:43.807Z,20.60
2019-02-19T20:20:13.589Z,17.10
2019-02-19T20:22:42.769Z,18.95
2019-02-19T20:25:13.669Z,13.53
2019-02-19T20:27:42.872Z,16.55
2019-02-19T20:30:16.987Z,12.68
2019-02-19T20:32:46.132Z,17.20
2019-02-19T20:35:15.298Z,15.63
2019-02-19T20:37:53.501Z,14.87
2019-02-19T20:40:15.318Z,16.67
2019-02-19T20:42:44.513Z,15.70
2019-02-19T20:45:14.102Z,21.23
2019-02-19T20:47:43.331Z,21.62
2019-02-19T20:50:13.570Z,20.97
2019-02-19T20:52:42.732Z,21.57
2019-02-19T20:55:12.528Z,16.73
2019-02-19T20:57:41.693Z,15.08
2019-02-19T21:00:18.621Z,16.65
2019-02-19T21:02:47.771Z,19.00
2019-02-19T21:05:16.932Z,12.33
2019-02-19T21:07:46.060Z,20.95
2019-02-19T21:10:18.798Z,17.90
2019-02-19T21:12:47.951Z,17.85
2019-02-19T21:15:17.109Z,18.77
2019-02-19T21:17:46.274Z,12.50
2019-02-19T21:20:15.432Z,20.80
2019-02-19T21:22:44.566Z,12.80
2019-02-19T21:25:13.740Z,14.85
2019-02-19T21:27:42.915Z,13.45
2019-02-19T21:30:14.873Z,13.93
2019-02-19T21:32:44.029Z,18.05
2019-02-19T21:35:13.176Z,20.88
2019-02-19T21:37:42.303Z,19.30
2019-02-19T21:40:14.323Z,16.75
2019-02-19T21:42:43.474Z,16.42
2019-02-19T21:45:14.556Z,25.37
2019-02-19T21:47:43.717Z,19.02
2019-02-19T21:50:15.508Z,15.35
2019-02-19T21:52:44.758Z,13.62
2019-02-19T21:55:14.091Z,20.30
2019-02-19T21:57:43.249Z,16.42
2019-02-19T22:00:16.049Z,14.83
2019-02-19T22:02:45.175Z,11.50
2019-02-19T22:05:14.308Z,16.25
2019-02-19T22:07:43.470Z,11.50
2019-02-19T22:10:14.118Z,10.43
2019-02-19T22:12:43.298Z,15.55
2019-02-19T22:15:16.002Z,10.75
2019-02-19T22:17:45.149Z,11.65
2019-02-19T22:20:38.518Z,12.20
2019-02-19T22:23:08.244Z,11.60
2019-02-19T22:25:37.361Z,10.60
2019-02-19T22:28:06.507Z,10.53
2019-02-19T22:30:35.644Z,14.18
2019-02-19T22:33:04.843Z,16.07
2019-02-19T22:35:33.992Z,23.42
2019-02-19T22:38:03.166Z,19.40
2019-02-19T22:40:32.292Z,15.15
2019-02-19T22:43:01.442Z,15.15
2019-02-19T22:45:30.599Z,21.97
2019-02-19T22:47:59.757Z,20.12
2019-02-19T22:50:28.892Z,19.65
2019-02-19T22:52:58.039Z,13.50
2019-02-19T22:55:28.834Z,14.58
2019-02-19T22:57:58.001Z,12.33
2019-02-19T23:00:47.961Z,19.35
2019-02-19T23:03:21.488Z,20.60
2019-02-19T23:05:50.613Z,20.85
2019-02-19T23:08:19.779Z,19.57
2019-02-19T23:10:48.906Z,15.55
2019-02-19T23:13:18.142Z,15.40
2019-02-19T23:15:47.599Z,15.65
2019-02-19T23:18:16.740Z,16.35
2019-02-19T23:20:45.881Z,15.60
2019-02-19T23:23:15.041Z,17.73
2019-02-19T23:25:44.166Z,14.10
2019-02-19T23:28:13.355Z,15.98
2019-02-19T23:30:42.489Z,13.15
2019-02-19T23:33:11.637Z,23.52
2019-02-19T23:35:48.415Z,18.10
2019-02-19T23:38:17.561Z,17.27
2019-02-19T23:40:46.712Z,18.50
2019-02-19T23:43:15.874Z,18.77
2019-02-19T23:45:45.000Z,16.73
2019-02-19T23:48:14.179Z,18.37
2019-02-19T23:50:43.408Z,22.73
2019-02-19T23:53:12.555Z,21.17
2019-02-19T23:55:41.694Z,14.95
2019-02-19T23:58:10.846Z,19.07
